<?xml version="1.0" encoding="UTF-8" standalone="no" ?>
<gpx xmlns="http://www.topografix.com/GPX/1/1" xmlns:xsi="http://www.w3.org/2001/XMLSchema-instance" xsi:schemaLocation="http://www.topografix.com/GPX/1/1 http://www.topografix.com/GPX/1/1/gpx.xsd" version="1.1" creator="VisuGPX - https://www.visugpx.com">
  <metadata>
    <name>les grands communaux.</name>
  </metadata>
  <trk>
    <name><![CDATA[les grands communaux.]]></name>
    <trkseg>
      <trkpt lat="46.85449" lon="6.33162">
        <ele>873</ele>
        <time>2021-11-19T18:02:50+01:00</time>
      </trkpt>
      <trkpt lat="46.85496" lon="6.33102">
        <ele>879</ele>
        <time>2021-11-19T18:02:55+01:00</time>
      </trkpt>
      <trkpt lat="46.85581" lon="6.33093">
        <ele>887</ele>
        <time>2021-11-19T18:03:00+01:00</time>
      </trkpt>
      <trkpt lat="46.85631" lon="6.33076">
        <ele>890</ele>
        <time>2021-11-19T18:03:05+01:00</time>
      </trkpt>
      <trkpt lat="46.85672" lon="6.33063">
        <ele>898</ele>
        <time>2021-11-19T18:03:10+01:00</time>
      </trkpt>
      <trkpt lat="46.85751" lon="6.33059">
        <ele>914</ele>
        <time>2021-11-19T18:03:15+01:00</time>
      </trkpt>
      <trkpt lat="46.8576" lon="6.33128">
        <ele>911</ele>
        <time>2021-11-19T18:03:20+01:00</time>
      </trkpt>
      <trkpt lat="46.85792" lon="6.33278">
        <ele>904</ele>
        <time>2021-11-19T18:03:25+01:00</time>
      </trkpt>
      <trkpt lat="46.85813" lon="6.33398">
        <ele>905</ele>
        <time>2021-11-19T18:03:30+01:00</time>
      </trkpt>
      <trkpt lat="46.85807" lon="6.33565">
        <ele>891</ele>
        <time>2021-11-19T18:03:35+01:00</time>
      </trkpt>
      <trkpt lat="46.85842" lon="6.33617">
        <ele>898</ele>
        <time>2021-11-19T18:03:40+01:00</time>
      </trkpt>
      <trkpt lat="46.85889" lon="6.3366">
        <ele>913</ele>
        <time>2021-11-19T18:03:45+01:00</time>
      </trkpt>
      <trkpt lat="46.85909" lon="6.33711">
        <ele>916</ele>
        <time>2021-11-19T18:03:50+01:00</time>
      </trkpt>
      <trkpt lat="46.85948" lon="6.33806">
        <ele>927</ele>
        <time>2021-11-19T18:03:55+01:00</time>
      </trkpt>
      <trkpt lat="46.85971" lon="6.33853">
        <ele>930</ele>
        <time>2021-11-19T18:04:00+01:00</time>
      </trkpt>
      <trkpt lat="46.86015" lon="6.33892">
        <ele>935</ele>
        <time>2021-11-19T18:04:05+01:00</time>
      </trkpt>
      <trkpt lat="46.86085" lon="6.33866">
        <ele>963</ele>
        <time>2021-11-19T18:04:10+01:00</time>
      </trkpt>
      <trkpt lat="46.86068" lon="6.3378">
        <ele>960</ele>
        <time>2021-11-19T18:04:15+01:00</time>
      </trkpt>
      <trkpt lat="46.86059" lon="6.3366">
        <ele>966</ele>
        <time>2021-11-19T18:04:20+01:00</time>
      </trkpt>
      <trkpt lat="46.86109" lon="6.33789">
        <ele>978</ele>
        <time>2021-11-19T18:04:25+01:00</time>
      </trkpt>
      <trkpt lat="46.86165" lon="6.33849">
        <ele>987</ele>
        <time>2021-11-19T18:04:30+01:00</time>
      </trkpt>
      <trkpt lat="46.86206" lon="6.33866">
        <ele>988</ele>
        <time>2021-11-19T18:04:35+01:00</time>
      </trkpt>
      <trkpt lat="46.86238" lon="6.33836">
        <ele>991</ele>
        <time>2021-11-19T18:04:40+01:00</time>
      </trkpt>
      <trkpt lat="46.86264" lon="6.33836">
        <ele>995</ele>
        <time>2021-11-19T18:04:45+01:00</time>
      </trkpt>
      <trkpt lat="46.86276" lon="6.33879">
        <ele>994</ele>
        <time>2021-11-19T18:04:50+01:00</time>
      </trkpt>
      <trkpt lat="46.863" lon="6.33909">
        <ele>993</ele>
        <time>2021-11-19T18:04:55+01:00</time>
      </trkpt>
      <trkpt lat="46.86323" lon="6.34042">
        <ele>990</ele>
        <time>2021-11-19T18:05:00+01:00</time>
      </trkpt>
      <trkpt lat="46.86364" lon="6.34123">
        <ele>993</ele>
        <time>2021-11-19T18:05:05+01:00</time>
      </trkpt>
      <trkpt lat="46.86364" lon="6.34166">
        <ele>996</ele>
        <time>2021-11-19T18:05:10+01:00</time>
      </trkpt>
      <trkpt lat="46.86382" lon="6.34209">
        <ele>995</ele>
        <time>2021-11-19T18:05:15+01:00</time>
      </trkpt>
      <trkpt lat="46.86411" lon="6.34248">
        <ele>990</ele>
        <time>2021-11-19T18:05:20+01:00</time>
      </trkpt>
      <trkpt lat="46.86479" lon="6.34231">
        <ele>990</ele>
        <time>2021-11-19T18:05:25+01:00</time>
      </trkpt>
      <trkpt lat="46.86537" lon="6.34278">
        <ele>992</ele>
        <time>2021-11-19T18:05:30+01:00</time>
      </trkpt>
      <trkpt lat="46.86581" lon="6.34338">
        <ele>996</ele>
        <time>2021-11-19T18:05:35+01:00</time>
      </trkpt>
      <trkpt lat="46.86675" lon="6.34355">
        <ele>997</ele>
        <time>2021-11-19T18:05:40+01:00</time>
      </trkpt>
      <trkpt lat="46.86705" lon="6.34235">
        <ele>1000</ele>
        <time>2021-11-19T18:05:45+01:00</time>
      </trkpt>
      <trkpt lat="46.86746" lon="6.34196">
        <ele>1004</ele>
        <time>2021-11-19T18:05:50+01:00</time>
      </trkpt>
      <trkpt lat="46.86854" lon="6.34149">
        <ele>1010</ele>
        <time>2021-11-19T18:05:55+01:00</time>
      </trkpt>
      <trkpt lat="46.8696" lon="6.34119">
        <ele>1010</ele>
        <time>2021-11-19T18:06:00+01:00</time>
      </trkpt>
      <trkpt lat="46.87024" lon="6.34162">
        <ele>1010</ele>
        <time>2021-11-19T18:06:05+01:00</time>
      </trkpt>
      <trkpt lat="46.87089" lon="6.34179">
        <ele>1010</ele>
        <time>2021-11-19T18:06:10+01:00</time>
      </trkpt>
      <trkpt lat="46.87133" lon="6.34145">
        <ele>1008</ele>
        <time>2021-11-19T18:06:15+01:00</time>
      </trkpt>
      <trkpt lat="46.87209" lon="6.33986">
        <ele>1001</ele>
        <time>2021-11-19T18:06:20+01:00</time>
      </trkpt>
      <trkpt lat="46.87203" lon="6.33892">
        <ele>1002</ele>
        <time>2021-11-19T18:06:25+01:00</time>
      </trkpt>
      <trkpt lat="46.872" lon="6.33797">
        <ele>1001</ele>
        <time>2021-11-19T18:06:30+01:00</time>
      </trkpt>
      <trkpt lat="46.87209" lon="6.33651">
        <ele>1000</ele>
        <time>2021-11-19T18:06:35+01:00</time>
      </trkpt>
      <trkpt lat="46.87215" lon="6.3357">
        <ele>1002</ele>
        <time>2021-11-19T18:06:40+01:00</time>
      </trkpt>
      <trkpt lat="46.87174" lon="6.33544">
        <ele>1006</ele>
        <time>2021-11-19T18:06:45+01:00</time>
      </trkpt>
      <trkpt lat="46.8708" lon="6.33565">
        <ele>1010</ele>
        <time>2021-11-19T18:06:50+01:00</time>
      </trkpt>
      <trkpt lat="46.87019" lon="6.3354">
        <ele>1010</ele>
        <time>2021-11-19T18:06:55+01:00</time>
      </trkpt>
      <trkpt lat="46.86977" lon="6.33492">
        <ele>1009</ele>
        <time>2021-11-19T18:07:00+01:00</time>
      </trkpt>
      <trkpt lat="46.86951" lon="6.33329">
        <ele>1006</ele>
        <time>2021-11-19T18:07:05+01:00</time>
      </trkpt>
      <trkpt lat="46.86878" lon="6.33269">
        <ele>997</ele>
        <time>2021-11-19T18:07:10+01:00</time>
      </trkpt>
      <trkpt lat="46.8669" lon="6.33368">
        <ele>984</ele>
        <time>2021-11-19T18:07:15+01:00</time>
      </trkpt>
      <trkpt lat="46.86637" lon="6.33359">
        <ele>980</ele>
        <time>2021-11-19T18:07:20+01:00</time>
      </trkpt>
      <trkpt lat="46.86555" lon="6.33334">
        <ele>982</ele>
        <time>2021-11-19T18:07:25+01:00</time>
      </trkpt>
      <trkpt lat="46.86502" lon="6.33394">
        <ele>987</ele>
        <time>2021-11-19T18:07:30+01:00</time>
      </trkpt>
      <trkpt lat="46.86411" lon="6.33449">
        <ele>989</ele>
        <time>2021-11-19T18:07:35+01:00</time>
      </trkpt>
      <trkpt lat="46.8632" lon="6.33458">
        <ele>993</ele>
        <time>2021-11-19T18:07:40+01:00</time>
      </trkpt>
      <trkpt lat="46.86218" lon="6.33441">
        <ele>998</ele>
        <time>2021-11-19T18:07:45+01:00</time>
      </trkpt>
      <trkpt lat="46.86103" lon="6.33467">
        <ele>989</ele>
        <time>2021-11-19T18:07:50+01:00</time>
      </trkpt>
      <trkpt lat="46.86033" lon="6.33377">
        <ele>970</ele>
        <time>2021-11-19T18:07:55+01:00</time>
      </trkpt>
      <trkpt lat="46.85971" lon="6.33243">
        <ele>958</ele>
        <time>2021-11-19T18:08:00+01:00</time>
      </trkpt>
      <trkpt lat="46.85939" lon="6.33119">
        <ele>957</ele>
        <time>2021-11-19T18:08:05+01:00</time>
      </trkpt>
      <trkpt lat="46.85895" lon="6.3299">
        <ele>951</ele>
        <time>2021-11-19T18:08:10+01:00</time>
      </trkpt>
      <trkpt lat="46.85836" lon="6.3293">
        <ele>940</ele>
        <time>2021-11-19T18:08:15+01:00</time>
      </trkpt>
      <trkpt lat="46.85777" lon="6.32922">
        <ele>931</ele>
        <time>2021-11-19T18:08:20+01:00</time>
      </trkpt>
      <trkpt lat="46.85786" lon="6.32956">
        <ele>929</ele>
        <time>2021-11-19T18:08:25+01:00</time>
      </trkpt>
      <trkpt lat="46.85754" lon="6.32965">
        <ele>922</ele>
        <time>2021-11-19T18:08:30+01:00</time>
      </trkpt>
      <trkpt lat="46.85733" lon="6.33068">
        <ele>905</ele>
        <time>2021-11-19T18:08:35+01:00</time>
      </trkpt>
      <trkpt lat="46.85578" lon="6.33093">
        <ele>887</ele>
        <time>2021-11-19T18:08:40+01:00</time>
      </trkpt>
      <trkpt lat="46.85484" lon="6.3311">
        <ele>878</ele>
        <time>2021-11-19T18:08:45+01:00</time>
      </trkpt>
      <trkpt lat="46.85449" lon="6.33162">
        <ele>873</ele>
        <time>2021-11-19T18:08:50+01:00</time>
      </trkpt>
    </trkseg>
  </trk>
</gpx>